Time;durP1;ratioP1;P1;durP2;ratioP2;P2;SDS_P1;SDS_P2;PMS_P1;PMS_P2;Temp;Humidity;BMP_temperature;BMP_pressure;BME280_temperature;BME280_humidity;BME280_pressure;Samples;Min_cycle;Max_cycle;Signal;HPM_P1;HPM_P2
2023/03/11 05:14:04;;;;;;;8.60;8.07;;;4.60;24.60;;;;;;4980523;28;20417;-48
2023/03/11 05:16:29;;;;;;;6.87;6.60;;;4.60;23.90;;;;;;4929460;29;20452;-75
2023/03/11 05:18:55;;;;;;;7.67;7.37;;;4.70;23.50;;;;;;4929710;29;20795;-73
2023/03/11 05:21:20;;;;;;;7.70;7.30;;;4.40;24.10;;;;;;4914559;29;20694;-74
2023/03/11 05:23:46;;;;;;;8.20;7.60;;;4.10;24.90;;;;;;4918538;29;20231;-75
2023/03/11 05:26:11;;;;;;;8.10;7.50;;;4.10;24.80;;;;;;4918338;29;20204;-74
2023/03/11 05:28:37;;;;;;;7.80;7.40;;;3.90;25.20;;;;;;4917678;29;20248;-74
2023/03/11 05:31:07;;;;;;;8.27;7.67;;;3.80;25.30;;;;;;4917216;29;20188;-75
2023/03/11 05:33:34;;;;;;;8.23;7.70;;;3.80;25.40;;;;;;4917507;29;20187;-74
2023/03/11 05:36:08;;;;;;;8.50;8.00;;;3.60;25.80;;;;;;4916915;29;20405;-75
2023/03/11 05:38:36;;;;;;;8.33;7.73;;;3.40;26.50;;;;;;4900127;29;20445;-75
2023/03/11 05:41:01;;;;;;;7.87;7.57;;;3.60;26.90;;;;;;4917295;29;20408;-74
2023/03/11 05:43:27;;;;;;;7.73;7.33;;;3.80;26.40;;;;;;4916660;29;20970;-74
2023/03/11 05:45:52;;;;;;;8.33;7.80;;;3.80;25.70;;;;;;4915962;29;20204;-74
2023/03/11 05:48:18;;;;;;;9.00;8.50;;;3.70;25.70;;;;;;4916405;29;20307;-74
2023/03/11 05:50:43;;;;;;;8.03;7.63;;;3.70;25.60;;;;;;4917061;29;20232;-74
2023/03/11 05:53:09;;;;;;;8.67;7.80;;;3.60;26.20;;;;;;4898986;29;20239;-75
2023/03/11 05:55:34;;;;;;;7.53;7.23;;;3.60;26.30;;;;;;4916592;29;20181;-76
2023/03/11 05:58:00;;;;;;;7.93;7.53;;;3.50;26.50;;;;;;4916125;29;20566;-75
2023/03/11 06:00:28;;;;;;;7.70;7.40;;;3.50;26.70;;;;;;4899317;29;20831;-75
2023/03/11 06:02:54;;;;;;;8.97;8.33;;;3.40;26.60;;;;;;4899305;29;20217;-74
2023/03/11 06:05:19;;;;;;;7.80;7.50;;;3.40;26.60;;;;;;4899842;29;20456;-74
2023/03/11 06:07:45;;;;;;;7.67;7.33;;;3.40;26.60;;;;;;4916430;29;20693;-74
2023/03/11 06:10:11;;;;;;;7.83;7.50;;;3.30;26.70;;;;;;4916927;29;20738;-74
2023/03/11 06:12:37;;;;;;;8.63;7.93;;;3.20;26.80;;;;;;4899012;29;20181;-75
2023/03/11 06:15:04;;;;;;;9.27;8.80;;;3.30;26.80;;;;;;4916516;29;20831;-74
2023/03/11 06:17:30;;;;;;;7.80;7.50;;;3.30;26.70;;;;;;4916143;29;20785;-74
2023/03/11 06:19:55;;;;;;;7.50;6.87;;;3.20;26.90;;;;;;4916834;29;20477;-74
2023/03/11 06:22:21;;;;;;;7.93;7.33;;;3.60;26.40;;;;;;4915980;29;20177;-74
2023/03/11 06:24:46;;;;;;;7.87;7.47;;;3.70;25.80;;;;;;4899536;29;20181;-74
2023/03/11 06:27:12;;;;;;;7.90;7.60;;;3.70;25.50;;;;;;4899102;29;20208;-74
2023/03/11 06:29:37;;;;;;;8.63;8.00;;;3.70;25.50;;;;;;4899270;29;20219;-74
2023/03/11 06:32:03;;;;;;;8.10;7.80;;;3.60;25.90;;;;;;4916012;29;20183;-74
2023/03/11 06:34:29;;;;;;;8.67;8.07;;;3.60;26.60;;;;;;4916105;29;20175;-74
2023/03/11 06:36:54;;;;;;;8.43;8.03;;;3.70;25.60;;;;;;4899260;29;20184;-74
2023/03/11 06:39:20;;;;;;;8.17;7.77;;;3.70;25.80;;;;;;4899443;29;20200;-74
2023/03/11 06:41:45;;;;;;;20.37;15.43;;;3.80;26.50;;;;;;4916012;29;20234;-74
2023/03/11 06:44:11;;;;;;;8.77;8.10;;;3.90;25.50;;;;;;4921082;29;20258;-75
2023/03/11 06:46:37;;;;;;;8.93;8.23;;;4.30;24.60;;;;;;4913299;29;20188;-75
2023/03/11 06:49:03;;;;;;;8.50;8.10;;;4.00;25.20;;;;;;4914650;29;20460;-75
2023/03/11 06:51:28;;;;;;;7.77;7.30;;;4.00;25.10;;;;;;4933678;29;20191;-74
2023/03/11 06:53:54;;;;;;;7.33;6.97;;;3.80;25.50;;;;;;4934058;29;20180;-75
2023/03/11 06:56:20;;;;;;;8.80;8.30;;;3.70;25.30;;;;;;4933625;29;20759;-74
2023/03/11 06:58:46;;;;;;;8.00;7.60;;;3.80;25.20;;;;;;4933048;29;20279;-74
2023/03/11 07:01:14;;;;;;;8.37;8.07;;;3.80;24.80;;;;;;4932413;29;20424;-74
2023/03/11 07:03:40;;;;;;;8.23;7.83;;;3.70;25.20;;;;;;4933097;29;20802;-73
2023/03/11 07:06:11;;;;;;;8.40;7.90;;;3.60;25.30;;;;;;4930631;29;20447;-73
2023/03/11 07:08:37;;;;;;;8.10;7.70;;;3.70;25.50;;;;;;4928385;29;20981;-74
2023/03/11 07:11:05;;;;;;;12.20;11.27;;;3.50;25.80;;;;;;4933766;29;20447;-75
2023/03/11 07:13:30;;;;;;;9.60;8.80;;;3.40;26.10;;;;;;4933454;29;20172;-75
2023/03/11 07:16:01;;;;;;;8.20;7.70;;;3.40;26.00;;;;;;4916657;29;20440;-74
2023/03/11 07:18:27;;;;;;;8.47;7.97;;;3.50;25.80;;;;;;4933779;29;20304;-74
2023/03/11 07:20:52;;;;;;;8.17;7.67;;;3.60;25.30;;;;;;4933985;29;20981;-75
2023/03/11 07:23:18;;;;;;;8.30;7.70;;;3.40;25.80;;;;;;4934104;29;20553;-75
2023/03/11 07:25:47;;;;;;;8.03;7.73;;;3.40;25.90;;;;;;4928444;29;20954;-77
2023/03/11 07:28:13;;;;;;;8.47;7.87;;;3.40;26.10;;;;;;4923733;29;20622;-74
2023/03/11 07:30:39;;;;;;;8.77;8.30;;;3.40;25.80;;;;;;4916750;29;20428;-75
2023/03/11 07:33:04;;;;;;;8.90;8.30;;;3.60;25.40;;;;;;4933724;29;20420;-75
2023/03/11 07:35:30;;;;;;;7.97;7.50;;;3.70;25.40;;;;;;4916333;29;20173;-76
2023/03/11 07:37:55;;;;;;;8.47;7.80;;;4.10;24.80;;;;;;4916745;29;20195;-74
2023/03/11 07:40:21;;;;;;;9.77;9.07;;;4.20;24.00;;;;;;4916235;29;20180;-73
2023/03/11 07:42:46;;;;;;;8.17;7.77;;;4.30;24.20;;;;;;4933438;29;20180;-75
2023/03/11 07:45:12;;;;;;;7.83;7.33;;;4.60;23.10;;;;;;4916579;29;20207;-75
2023/03/11 07:47:37;;;;;;;7.70;7.20;;;4.20;23.20;;;;;;4916743;29;20211;-76
2023/03/11 07:50:03;;;;;;;8.90;8.20;;;4.10;23.90;;;;;;4916701;29;20212;-75
2023/03/11 07:52:30;;;;;;;8.17;7.63;;;4.00;24.90;;;;;;4933792;29;20172;-74
2023/03/11 07:54:56;;;;;;;7.87;7.37;;;4.40;24.10;;;;;;4917032;29;20427;-73
2023/03/11 07:57:21;;;;;;;7.47;7.07;;;4.60;24.30;;;;;;4933956;29;20408;-73
2023/03/11 07:59:47;;;;;;;7.87;7.40;;;4.50;23.90;;;;;;4931202;29;20927;-74
2023/03/11 08:02:12;;;;;;;7.83;7.43;;;4.80;23.10;;;;;;4912870;29;20188;-73
2023/03/11 08:04:38;;;;;;;8.30;7.70;;;4.70;23.20;;;;;;4932931;29;20275;-74
2023/03/11 08:07:03;;;;;;;8.33;7.40;;;4.80;22.80;;;;;;4933131;29;20693;-75
2023/03/11 08:09:29;;;;;;;7.67;7.07;;;5.00;23.10;;;;;;4936888;29;20212;-75
2023/03/11 08:11:54;;;;;;;7.50;6.90;;;5.10;22.60;;;;;;4937220;29;20183;-74
2023/03/11 08:14:20;;;;;;;8.90;7.93;;;5.10;21.80;;;;;;4920212;29;20183;-74
2023/03/11 08:16:45;;;;;;;8.10;7.60;;;4.80;22.60;;;;;;4938071;29;20176;-74
2023/03/11 08:19:12;;;;;;;8.70;8.00;;;5.00;22.00;;;;;;4920633;29;20204;-73
2023/03/11 08:21:37;;;;;;;8.10;7.70;;;5.30;21.40;;;;;;4920051;29;20195;-74
2023/03/11 08:24:03;;;;;;;8.53;7.87;;;5.30;21.30;;;;;;4937725;29;20786;-74
2023/03/11 08:26:30;;;;;;;8.97;8.47;;;5.40;21.00;;;;;;4920073;29;20555;-73
2023/03/11 08:28:56;;;;;;;7.27;6.87;;;5.50;21.10;;;;;;4936004;29;20464;-73
2023/03/11 08:31:25;;;;;;;8.20;7.70;;;5.50;20.60;;;;;;4935781;29;20989;-75
2023/03/11 08:33:55;;;;;;;7.60;7.00;;;5.50;21.10;;;;;;4937312;29;20510;-74
2023/03/11 08:36:20;;;;;;;9.40;6.97;;;5.70;20.90;;;;;;4920239;29;20420;-74
2023/03/11 08:38:46;;;;;;;6.77;6.43;;;5.90;19.60;;;;;;4937435;29;20793;-73
2023/03/11 08:41:12;;;;;;;6.70;6.30;;;6.10;19.00;;;;;;4937224;29;20180;-74
2023/03/11 08:43:38;;;;;;;7.53;7.03;;;6.10;19.20;;;;;;4920570;29;20424;-74
2023/03/11 08:46:07;;;;;;;7.77;6.90;;;6.00;19.00;;;;;;4920021;29;20647;-74
2023/03/11 08:48:35;;;;;;;7.77;7.30;;;5.50;20.30;;;;;;4936827;29;20462;-74
2023/03/11 08:51:01;;;;;;;7.17;6.80;;;5.40;20.40;;;;;;4936074;29;20475;-74
2023/03/11 08:53:27;;;;;;;9.60;8.80;;;5.30;20.90;;;;;;4940619;29;20486;-75
2023/03/11 08:55:53;;;;;;;10.20;9.40;;;5.50;21.10;;;;;;4936834;29;20499;-73
2023/03/11 08:58:19;;;;;;;7.63;7.10;;;5.70;20.80;;;;;;4936786;29;20953;-74
2023/03/11 09:00:45;;;;;;;7.40;7.00;;;5.70;20.10;;;;;;4936095;29;20203;-75
2023/03/11 09:03:10;;;;;;;7.97;7.43;;;5.80;19.60;;;;;;4930914;29;20416;-74
2023/03/11 09:05:36;;;;;;;6.83;6.53;;;6.00;19.20;;;;;;4933168;29;20258;-74
2023/03/11 09:08:02;;;;;;;7.30;6.80;;;6.10;18.90;;;;;;4927869;29;20207;-74
2023/03/11 09:10:28;;;;;;;7.90;7.50;;;6.20;17.90;;;;;;4936455;29;20184;-74
2023/03/11 09:12:54;;;;;;;7.47;7.07;;;6.10;18.20;;;;;;4936564;29;20886;-76
2023/03/11 09:15:19;;;;;;;7.40;7.00;;;6.20;18.40;;;;;;4919817;29;20435;-75
2023/03/11 09:17:45;;;;;;;8.23;7.63;;;6.30;18.20;;;;;;4936706;29;20282;-74
2023/03/11 09:20:12;;;;;;;7.13;6.73;;;6.40;17.70;;;;;;4950237;28;20184;-76
2023/03/11 09:22:38;;;;;;;7.80;7.10;;;6.50;17.80;;;;;;4936157;29;20176;-76
2023/03/11 09:25:03;;;;;;;7.40;7.10;;;6.50;17.30;;;;;;4921480;29;20428;-75
2023/03/11 09:27:29;;;;;;;8.20;7.60;;;6.50;17.60;;;;;;4942761;29;20176;-75
2023/03/11 09:29:54;;;;;;;7.77;7.43;;;6.60;17.30;;;;;;4926496;29;20608;-74
2023/03/11 09:32:20;;;;;;;7.83;7.27;;;6.90;16.70;;;;;;4928243;29;20213;-75
2023/03/11 09:34:45;;;;;;;7.43;7.13;;;6.90;16.50;;;;;;4927669;29;20181;-74
2023/03/11 09:37:11;;;;;;;7.40;7.00;;;6.90;15.90;;;;;;4919261;29;20184;-73
2023/03/11 09:39:37;;;;;;;7.83;7.30;;;6.90;15.70;;;;;;4936138;29;20204;-74
2023/03/11 09:42:29;;;;;;;7.70;7.10;;;6.60;17.10;;;;;;4936306;29;20225;-74
2023/03/11 09:45:19;;;;;;;7.90;7.50;;;6.80;17.10;;;;;;4936827;29;20191;-76
2023/03/11 09:47:57;;;;;;;9.00;6.87;;;7.00;16.60;;;;;;4935301;29;20446;-75
2023/03/11 09:50:44;;;;;;;6.50;6.27;;;7.20;15.40;;;;;;4931804;29;20460;-76
2023/03/11 09:53:39;;;;;;;7.50;7.00;;;7.40;15.40;;;;;;4918425;29;21175;-76
2023/03/11 09:56:07;;;;;;;7.17;6.63;;;7.50;15.50;;;;;;4933911;29;20926;-73
2023/03/11 09:58:46;;;;;;;8.17;7.63;;;7.40;16.00;;;;;;4936925;29;20443;-76
2023/03/11 10:01:29;;;;;;;7.73;7.23;;;6.90;16.30;;;;;;4936194;29;20416;-75
2023/03/11 10:04:00;;;;;;;7.30;6.97;;;6.70;16.70;;;;;;4919538;29;20420;-74
2023/03/11 10:06:29;;;;;;;7.77;7.20;;;6.20;17.40;;;;;;4935978;29;20408;-75
2023/03/11 10:09:32;;;;;;;7.13;6.70;;;6.20;17.70;;;;;;4934683;29;20478;-75
2023/03/11 10:12:19;;;;;;;9.53;8.83;;;6.20;18.40;;;;;;4933863;29;20431;-76
2023/03/11 10:15:04;;;;;;;7.53;7.13;;;6.70;17.50;;;;;;4933009;29;20523;-74
2023/03/11 10:18:04;;;;;;;6.67;6.23;;;7.00;15.90;;;;;;4936779;29;20973;-72
2023/03/11 10:20:42;;;;;;;7.07;6.73;;;7.30;15.20;;;;;;4940407;29;20411;-75
2023/03/11 10:23:17;;;;;;;7.30;6.70;;;7.50;15.20;;;;;;4921113;29;20419;-74
2023/03/11 10:26:09;;;;;;;9.03;8.47;;;7.50;14.00;;;;;;4934956;29;20423;-74
2023/03/11 10:28:59;;;;;;;9.83;9.17;;;7.60;12.90;;;;;;4947809;29;21016;-74
2023/03/11 10:32:01;;;;;;;6.87;6.63;;;7.50;12.50;;;;;;4923919;29;20503;-77
2023/03/11 10:34:40;;;;;;;6.93;6.53;;;7.40;13.60;;;;;;4923920;29;20435;-76
2023/03/11 10:37:24;;;;;;;6.63;6.37;;;7.60;12.30;;;;;;4917501;29;20416;-76
2023/03/11 10:39:51;;;;;;;6.53;6.33;;;7.40;13.10;;;;;;4934455;29;20424;-75
2023/03/11 10:42:26;;;;;;;7.00;6.60;;;7.70;12.60;;;;;;4934282;29;20507;-75
2023/03/11 10:44:51;;;;;;;9.70;9.20;;;8.00;11.20;;;;;;4934295;29;20458;-74
2023/03/11 10:47:19;;;;;;;7.70;7.13;;;8.00;11.30;;;;;;4934829;29;20926;-73
2023/03/11 10:49:45;;;;;;;10.97;10.37;;;8.20;11.80;;;;;;4934486;29;20203;-74
2023/03/11 10:52:11;;;;;;;7.40;7.00;;;8.30;11.70;;;;;;4934370;29;20427;-76
2023/03/11 10:54:42;;;;;;;8.70;8.10;;;8.30;11.50;;;;;;4934221;29;20207;-74
2023/03/11 10:57:27;;;;;;;7.13;6.70;;;8.40;11.40;;;;;;4934484;29;20516;-73
2023/03/11 10:59:59;;;;;;;7.60;7.10;;;8.40;11.60;;;;;;4934407;29;20949;-75
2023/03/11 11:02:27;;;;;;;6.90;6.60;;;7.60;12.70;;;;;;4933908;29;20834;-74
2023/03/11 11:05:17;;;;;;;6.47;6.17;;;7.60;12.60;;;;;;4934700;29;20424;-74
2023/03/11 11:07:44;;;;;;;6.67;6.27;;;7.90;11.70;;;;;;4914528;29;20551;-75
2023/03/11 11:10:25;;;;;;;6.07;5.87;;;8.10;11.00;;;;;;4921551;29;20460;-75
2023/03/11 11:12:56;;;;;;;6.50;6.20;;;8.30;11.20;;;;;;4934499;29;20466;-76
2023/03/11 11:16:14;;;;;;;5.90;5.70;;;8.10;11.00;;;;;;4917285;29;20440;-75
2023/03/11 11:18:46;;;;;;;5.80;5.60;;;7.50;11.60;;;;;;4899345;29;20463;-76
2023/03/11 11:21:40;;;;;;;6.90;6.50;;;7.80;11.60;;;;;;4925294;29;21083;-74
2023/03/11 11:24:20;;;;;;;6.67;6.27;;;7.90;10.40;;;;;;4932266;29;20511;-76
2023/03/11 11:27:10;;;;;;;6.80;6.50;;;8.20;9.40;;;;;;4932460;29;20570;-74
2023/03/11 11:29:36;;;;;;;6.33;6.03;;;8.00;10.10;;;;;;4940283;29;20474;-74
2023/03/11 11:32:25;;;;;;;6.70;6.40;;;8.20;9.70;;;;;;4923065;29;20431;-75
2023/03/11 11:35:02;;;;;;;6.83;6.50;;;8.20;9.40;;;;;;4932889;29;20183;-75
2023/03/11 11:37:30;;;;;;;6.87;6.57;;;8.20;9.10;;;;;;4933574;29;20800;-75
2023/03/11 11:40:09;;;;;;;6.27;6.00;;;8.20;9.80;;;;;;4933657;29;20923;-74
2023/03/11 11:42:37;;;;;;;7.20;6.70;;;8.10;10.40;;;;;;4917404;29;20764;-74
2023/03/11 11:45:14;;;;;;;6.43;6.13;;;7.80;10.80;;;;;;4938753;29;20449;-76
2023/03/11 11:47:48;;;;;;;5.87;5.53;;;7.70;11.10;;;;;;4938193;29;20956;-74
2023/03/11 11:50:22;;;;;;;6.10;5.70;;;7.90;11.20;;;;;;4921507;29;20439;-74
2023/03/11 11:52:54;;;;;;;5.90;5.60;;;7.80;11.50;;;;;;4938287;29;20869;-73
2023/03/11 11:55:26;;;;;;;5.90;5.50;;;7.60;12.20;;;;;;4953125;29;20428;-75
2023/03/11 11:57:52;;;;;;;5.80;5.37;;;7.70;11.70;;;;;;4938236;29;20436;-74
2023/03/11 12:00:37;;;;;;;6.57;6.10;;;7.40;11.70;;;;;;4938492;29;20408;-74
2023/03/11 12:03:42;;;;;;;6.87;6.57;;;6.90;12.10;;;;;;4938025;29;20541;-75
2023/03/11 12:06:18;;;;;;;6.30;6.00;;;6.90;12.40;;;;;;4938356;29;20963;-74
2023/03/11 12:09:04;;;;;;;6.50;6.10;;;6.90;12.60;;;;;;4937965;29;21435;-74
2023/03/11 12:11:53;;;;;;;5.50;5.30;;;7.10;12.50;;;;;;4924943;29;20514;-74
2023/03/11 12:14:42;;;;;;;5.63;5.33;;;7.40;12.30;;;;;;4938534;29;20909;-74
2023/03/11 12:17:10;;;;;;;5.50;5.30;;;7.60;12.00;;;;;;4938360;29;20522;-75
2023/03/11 12:19:55;;;;;;;5.87;5.67;;;7.70;12.60;;;;;;4937598;29;20436;-74
2023/03/11 12:22:50;;;;;;;7.10;6.60;;;8.00;11.80;;;;;;4935807;29;20416;-74
2023/03/11 12:25:20;;;;;;;6.87;6.50;;;8.10;11.10;;;;;;4936124;29;20420;-75
2023/03/11 12:28:11;;;;;;;6.13;5.83;;;8.20;10.70;;;;;;4937761;29;20432;-74
2023/03/11 12:30:49;;;;;;;7.00;6.60;;;8.20;10.70;;;;;;4934907;29;21057;-73
2023/03/11 12:33:39;;;;;;;5.90;5.70;;;8.10;11.00;;;;;;4935685;29;20412;-73
2023/03/11 12:36:09;;;;;;;6.63;6.33;;;8.20;10.10;;;;;;4937984;29;20403;-74
2023/03/11 12:38:39;;;;;;;6.17;5.77;;;8.30;10.70;;;;;;4936676;29;20444;-72
2023/03/11 12:41:06;;;;;;;6.53;6.03;;;8.30;12.00;;;;;;4936803;29;20491;-74
2023/03/11 12:43:32;;;;;;;5.60;5.30;;;8.20;10.20;;;;;;4936429;29;20415;-73
2023/03/11 12:46:03;;;;;;;6.13;5.83;;;8.20;10.20;;;;;;4936554;29;20478;-73
2023/03/11 12:48:28;;;;;;;6.10;5.67;;;8.20;9.90;;;;;;4936290;29;20462;-73
2023/03/11 12:50:56;;;;;;;5.77;5.50;;;8.30;9.90;;;;;;4935927;29;20428;-73
2023/03/11 12:53:44;;;;;;;6.40;6.00;;;8.40;9.90;;;;;;4936557;29;20236;-72
2023/03/11 12:56:35;;;;;;;6.30;6.00;;;8.00;10.00;;;;;;4928101;29;20421;-73
2023/03/11 12:59:42;;;;;;;6.03;5.63;;;8.10;9.70;;;;;;4918162;29;21003;-73
2023/03/11 13:02:43;;;;;;;7.10;6.60;;;8.20;10.10;;;;;;4918006;29;20409;-73
2023/03/11 13:05:17;;;;;;;6.13;5.70;;;7.90;10.30;;;;;;4918031;29;20987;-73
2023/03/11 13:07:56;;;;;;;5.90;5.57;;;7.90;10.10;;;;;;4922515;29;20426;-73
2023/03/11 13:10:27;;;;;;;6.00;5.73;;;8.00;10.20;;;;;;4936124;29;20428;-74
2023/03/11 13:12:53;;;;;;;6.70;6.10;;;8.10;10.10;;;;;;4936836;29;20471;-74
2023/03/11 13:15:19;;;;;;;6.17;5.77;;;8.00;10.00;;;;;;4918033;29;20441;-74
2023/03/11 13:18:12;;;;;;;6.57;6.17;;;8.00;10.50;;;;;;4917472;29;20822;-74
2023/03/11 13:20:40;;;;;;;5.50;5.30;;;8.10;9.50;;;;;;4916688;29;20180;-75
2023/03/11 13:23:11;;;;;;;6.60;6.30;;;8.10;9.80;;;;;;4917034;29;20401;-73
2023/03/11 13:25:46;;;;;;;5.87;5.50;;;8.30;10.30;;;;;;4924861;29;20844;-73
2023/03/11 13:28:39;;;;;;;6.27;5.87;;;8.40;9.80;;;;;;4935059;29;20463;-73
2023/03/11 13:31:26;;;;;;;6.43;6.13;;;8.50;9.80;;;;;;4918486;29;20419;-73
2023/03/11 13:34:11;;;;;;;6.30;6.00;;;8.60;9.60;;;;;;4935051;29;20411;-73
2023/03/11 13:36:50;;;;;;;6.37;6.07;;;8.70;9.60;;;;;;4916650;29;20514;-73
2023/03/11 13:39:43;;;;;;;6.20;5.80;;;8.40;10.40;;;;;;4933530;29;20850;-73
2023/03/11 13:42:53;;;;;;;6.70;6.20;;;8.20;10.20;;;;;;4934791;29;20419;-73
2023/03/11 13:45:25;;;;;;;6.50;5.90;;;8.40;12.20;;;;;;4906883;29;20429;-73
2023/03/11 13:47:54;;;;;;;6.70;6.30;;;8.60;10.50;;;;;;4933387;29;20436;-73
2023/03/11 13:50:26;;;;;;;6.47;6.13;;;8.60;10.10;;;;;;4935081;29;20455;-74
2023/03/11 13:52:53;;;;;;;5.77;5.47;;;8.40;9.80;;;;;;4935553;29;20466;-73
2023/03/11 13:55:32;;;;;;;5.83;5.63;;;8.20;11.30;;;;;;4918979;29;20416;-74
2023/03/11 13:57:58;;;;;;;6.03;5.73;;;8.00;11.30;;;;;;4935811;29;20423;-76
2023/03/11 14:00:27;;;;;;;5.70;5.37;;;8.20;11.10;;;;;;4936232;29;20937;-75
2023/03/11 14:03:00;;;;;;;6.80;6.40;;;8.40;11.00;;;;;;4935882;29;20260;-75
2023/03/11 14:05:33;;;;;;;6.20;5.90;;;8.30;11.30;;;;;;4934842;29;20940;-75
2023/03/11 14:08:22;;;;;;;7.20;6.67;;;8.20;10.80;;;;;;4935579;29;20523;-73
2023/03/11 14:10:52;;;;;;;7.10;6.70;;;8.40;11.00;;;;;;4931114;29;20458;-73
2023/03/11 14:13:18;;;;;;;6.10;5.80;;;8.60;10.50;;;;;;4936230;29;20782;-73
2023/03/11 14:15:58;;;;;;;6.57;6.10;;;8.80;10.10;;;;;;4935896;29;20950;-75
2023/03/11 14:18:34;;;;;;;6.50;6.10;;;8.90;10.20;;;;;;4934674;29;20434;-75
2023/03/11 14:21:01;;;;;;;6.53;6.10;;;9.10;11.00;;;;;;4934705;29;20439;-75
2023/03/11 14:23:34;;;;;;;7.10;6.60;;;9.10;9.80;;;;;;4915967;29;20479;-75
2023/03/11 14:26:05;;;;;;;6.73;6.43;;;9.10;9.70;;;;;;4934068;29;20423;-74
2023/03/11 14:28:34;;;;;;;6.90;6.43;;;9.10;9.90;;;;;;4933045;29;20467;-75
2023/03/11 14:31:02;;;;;;;6.43;6.00;;;9.00;10.00;;;;;;4915299;29;20503;-74
2023/03/11 14:33:28;;;;;;;6.57;6.27;;;9.00;10.30;;;;;;4932541;29;20467;-74
2023/03/11 14:35:56;;;;;;;6.77;6.30;;;9.00;9.90;;;;;;4932862;29;20420;-75
2023/03/11 14:38:24;;;;;;;6.40;6.10;;;9.00;10.60;;;;;;4933988;29;20231;-74
2023/03/11 14:40:53;;;;;;;6.10;5.80;;;9.00;10.50;;;;;;4933838;29;20487;-74
2023/03/11 14:43:20;;;;;;;5.80;5.60;;;9.00;10.70;;;;;;4934197;29;20416;-74
2023/03/11 14:45:46;;;;;;;6.50;6.10;;;9.00;10.70;;;;;;4935185;29;20503;-75
2023/03/11 14:48:28;;;;;;;6.50;6.10;;;9.00;10.60;;;;;;4935341;29;20443;-75
2023/03/11 14:50:57;;;;;;;6.73;6.23;;;9.00;10.60;;;;;;4937958;29;20423;-74
2023/03/11 14:53:27;;;;;;;6.93;6.60;;;9.00;10.70;;;;;;4941019;29;20420;-75
2023/03/11 14:56:00;;;;;;;7.13;6.73;;;9.00;10.70;;;;;;4940308;29;20420;-75
2023/03/11 14:58:33;;;;;;;7.03;6.57;;;9.00;11.20;;;;;;4947344;29;20472;-74
2023/03/11 15:01:04;;;;;;;6.33;5.93;;;9.00;10.80;;;;;;4958729;29;20408;-75
2023/03/11 15:03:34;;;;;;;7.07;6.77;;;9.00;10.60;;;;;;4941788;28;20428;-75
2023/03/11 15:06:07;;;;;;;6.57;6.07;;;9.00;10.70;;;;;;4958283;29;20420;-75
2023/03/11 15:08:49;;;;;;;7.13;6.73;;;9.10;10.50;;;;;;4958427;29;20469;-75
2023/03/11 15:11:15;;;;;;;7.40;6.90;;;9.10;10.80;;;;;;4958134;28;20415;-74
2023/03/11 15:13:43;;;;;;;6.60;6.20;;;9.20;10.90;;;;;;4958172;29;20486;-75
2023/03/11 15:16:32;;;;;;;6.53;6.23;;;9.20;10.90;;;;;;4952924;29;20643;-74
2023/03/11 15:19:00;;;;;;;6.17;5.90;;;9.20;10.90;;;;;;4945598;29;20444;-74
2023/03/11 15:21:27;;;;;;;6.40;5.97;;;9.20;10.80;;;;;;4941988;29;20506;-75
2023/03/11 15:23:59;;;;;;;6.40;6.10;;;9.10;11.00;;;;;;4959263;28;20434;-75
2023/03/11 15:26:31;;;;;;;6.50;5.97;;;9.10;10.80;;;;;;4958194;29;20427;-74
2023/03/11 15:29:15;;;;;;;7.10;6.70;;;9.10;11.00;;;;;;4958035;29;20454;-75
2023/03/11 15:31:45;;;;;;;6.30;5.90;;;9.10;10.80;;;;;;4942090;29;20475;-75
2023/03/11 15:34:16;;;;;;;6.60;6.30;;;9.10;10.90;;;;;;4958737;29;20396;-74
2023/03/11 15:36:48;;;;;;;5.90;5.70;;;9.10;11.00;;;;;;4957978;29;20439;-74
2023/03/11 15:39:24;;;;;;;6.30;6.00;;;9.10;11.00;;;;;;4922779;29;20444;-74
2023/03/11 15:42:04;;;;;;;6.77;6.27;;;9.00;11.40;;;;;;4937906;29;20430;-74
2023/03/11 15:44:56;;;;;;;8.90;8.30;;;9.00;11.30;;;;;;4943171;29;20494;-74
2023/03/11 15:47:22;;;;;;;7.20;6.80;;;8.90;11.10;;;;;;4936968;29;20898;-74
2023/03/11 15:49:48;;;;;;;6.77;6.33;;;8.90;10.90;;;;;;4937744;29;20463;-74
2023/03/11 15:52:15;;;;;;;6.30;6.00;;;8.90;11.00;;;;;;4936922;29;20463;-74
2023/03/11 15:54:41;;;;;;;6.13;5.83;;;8.80;11.20;;;;;;4936778;29;20490;-74
2023/03/11 15:57:09;;;;;;;7.17;6.67;;;8.90;11.80;;;;;;4937632;29;20420;-74
2023/03/11 15:59:36;;;;;;;6.30;6.10;;;8.90;11.40;;;;;;4938721;29;20223;-74
2023/03/11 16:02:02;;;;;;;5.80;5.50;;;9.00;11.10;;;;;;4939728;29;20492;-74
2023/03/11 16:04:27;;;;;;;6.63;6.33;;;8.90;11.30;;;;;;4940710;29;20459;-74
2023/03/11 16:06:53;;;;;;;6.53;6.13;;;8.90;11.10;;;;;;4940057;29;20465;-74
2023/03/11 16:09:19;;;;;;;7.07;6.67;;;8.90;11.30;;;;;;4936849;29;20212;-74
2023/03/11 16:11:45;;;;;;;6.80;6.40;;;8.90;11.10;;;;;;4934940;29;20183;-74
2023/03/11 16:14:15;;;;;;;5.90;5.60;;;8.90;11.00;;;;;;4935228;29;20420;-75
2023/03/11 16:16:42;;;;;;;6.53;6.13;;;8.90;11.00;;;;;;4917898;29;20211;-75
2023/03/11 16:19:07;;;;;;;6.97;6.57;;;8.90;11.10;;;;;;4934566;29;20440;-74
2023/03/11 16:21:38;;;;;;;6.17;5.83;;;8.80;11.50;;;;;;4934188;29;20775;-75
2023/03/11 16:24:05;;;;;;;6.87;6.40;;;8.90;11.30;;;;;;4934345;29;20188;-75
2023/03/11 16:26:31;;;;;;;8.77;8.27;;;8.90;10.90;;;;;;4934427;29;20429;-75
2023/03/11 16:28:57;;;;;;;6.57;6.17;;;9.00;11.00;;;;;;4935361;29;20550;-74
2023/03/11 16:31:22;;;;;;;6.67;6.30;;;9.00;10.70;;;;;;4937477;29;20958;-75
2023/03/11 16:33:48;;;;;;;7.27;6.80;;;9.00;10.70;;;;;;4937929;29;20176;-75
2023/03/11 16:36:13;;;;;;;7.13;6.67;;;9.00;11.00;;;;;;4937896;29;20172;-75
2023/03/11 16:38:48;;;;;;;7.50;7.00;;;8.80;11.00;;;;;;4937781;29;20196;-74
2023/03/11 16:41:15;;;;;;;7.47;6.87;;;8.80;11.20;;;;;;4937453;29;20218;-75
2023/03/11 16:43:41;;;;;;;7.47;7.07;;;8.80;11.00;;;;;;4937350;29;20420;-74
2023/03/11 16:46:07;;;;;;;7.00;6.60;;;8.90;11.20;;;;;;4920885;29;20424;-75
2023/03/11 16:48:32;;;;;;;6.90;6.57;;;9.00;11.00;;;;;;4920009;29;20212;-75
2023/03/11 16:50:58;;;;;;;6.50;6.20;;;9.00;11.10;;;;;;4937487;29;20172;-75
2023/03/11 16:53:25;;;;;;;6.90;6.50;;;9.00;11.00;;;;;;4937352;29;20674;-75
2023/03/11 16:55:51;;;;;;;7.20;6.60;;;9.00;10.70;;;;;;4937413;29;20204;-75
2023/03/11 16:58:17;;;;;;;7.27;6.80;;;9.10;10.90;;;;;;4937450;29;20436;-74
2023/03/11 17:00:42;;;;;;;7.10;6.70;;;9.00;11.00;;;;;;4937158;29;20954;-75
2023/03/11 17:03:12;;;;;;;7.13;6.43;;;9.10;10.90;;;;;;4937002;29;20206;-75
2023/03/11 17:05:37;;;;;;;6.23;5.80;;;9.10;10.70;;;;;;4937039;29;20651;-75
2023/03/11 17:08:03;;;;;;;6.50;6.10;;;9.10;11.00;;;;;;4936917;29;20587;-75
2023/03/11 17:10:35;;;;;;;8.20;7.60;;;9.10;10.80;;;;;;4937645;29;20259;-75
2023/03/11 17:13:00;;;;;;;8.00;7.50;;;9.10;10.80;;;;;;4936730;29;20881;-75
2023/03/11 17:15:26;;;;;;;6.50;6.00;;;9.10;10.60;;;;;;4936678;29;20427;-75
2023/03/11 17:17:51;;;;;;;7.97;7.37;;;9.10;10.80;;;;;;4936711;29;20200;-74
2023/03/11 17:20:17;;;;;;;7.97;7.37;;;9.20;10.50;;;;;;4936784;29;20240;-75
2023/03/11 17:22:42;;;;;;;7.00;6.60;;;9.20;10.70;;;;;;4936446;29;20605;-75
2023/03/11 17:25:08;;;;;;;6.20;5.90;;;9.00;10.50;;;;;;4936995;29;20184;-74
2023/03/11 17:27:34;;;;;;;6.33;5.93;;;9.00;10.40;;;;;;4936407;29;20717;-74
2023/03/11 17:30:01;;;;;;;7.03;6.53;;;8.90;10.30;;;;;;4936521;29;20242;-74
2023/03/11 17:32:28;;;;;;;7.17;6.70;;;8.90;10.40;;;;;;4936366;29;20225;-74
2023/03/11 17:34:53;;;;;;;6.60;6.20;;;8.90;10.60;;;;;;4936991;29;20931;-74
2023/03/11 17:37:19;;;;;;;7.50;7.00;;;8.90;10.40;;;;;;4936626;29;20416;-74
2023/03/11 17:39:45;;;;;;;6.53;6.03;;;8.90;10.70;;;;;;4936070;29;20299;-74
2023/03/11 17:42:10;;;;;;;7.70;7.00;;;8.90;10.80;;;;;;4935562;29;20183;-74
2023/03/11 17:44:36;;;;;;;7.53;6.83;;;8.90;10.70;;;;;;4936226;29;20180;-74
2023/03/11 17:47:01;;;;;;;7.77;7.17;;;8.90;10.70;;;;;;4919417;29;20183;-74
2023/03/11 17:49:27;;;;;;;9.60;8.80;;;8.90;10.70;;;;;;4936230;29;20219;-74
2023/03/11 17:51:52;;;;;;;9.13;8.50;;;8.90;10.90;;;;;;4935985;29;20172;-75
2023/03/11 17:54:18;;;;;;;6.53;6.03;;;8.90;10.40;;;;;;4936315;29;20254;-75
2023/03/11 17:56:44;;;;;;;6.70;6.10;;;8.90;10.50;;;;;;4936305;29;20183;-75
2023/03/11 17:59:09;;;;;;;7.33;6.30;;;8.90;10.70;;;;;;4936139;29;20207;-74
2023/03/11 18:01:35;;;;;;;6.60;6.20;;;8.80;10.30;;;;;;4919090;29;20521;-75
2023/03/11 18:04:00;;;;;;;6.50;6.20;;;8.80;10.20;;;;;;4936029;29;20180;-75
2023/03/11 18:06:27;;;;;;;6.93;6.50;;;8.80;10.40;;;;;;4935802;29;20647;-74
2023/03/11 18:08:53;;;;;;;6.73;6.27;;;8.70;10.50;;;;;;4935685;29;20488;-74
2023/03/11 18:11:22;;;;;;;9.57;8.87;;;8.80;10.50;;;;;;4935594;29;20503;-74
2023/03/11 18:13:48;;;;;;;8.50;7.90;;;8.80;10.30;;;;;;4936154;29;20180;-75
2023/03/11 18:16:17;;;;;;;11.63;10.63;;;8.70;10.40;;;;;;4935778;29;20487;-74
2023/03/11 18:18:43;;;;;;;15.80;14.57;;;8.70;10.40;;;;;;4935632;29;20447;-74
2023/03/11 18:21:14;;;;;;;7.37;6.77;;;8.70;10.20;;;;;;4918938;29;20424;-73
2023/03/11 18:23:41;;;;;;;7.30;6.60;;;8.80;10.20;;;;;;4935638;29;20608;-74
2023/03/11 18:26:09;;;;;;;7.10;6.70;;;8.80;10.30;;;;;;4939656;29;20412;-74
2023/03/11 18:28:35;;;;;;;7.83;7.23;;;8.70;10.00;;;;;;4951994;29;20495;-74
2023/03/11 18:31:08;;;;;;;9.23;8.53;;;8.80;10.00;;;;;;4918907;29;20495;-73